Time;durP1;ratioP1;P1;durP2;ratioP2;P2;SDS_P1;SDS_P2;PMS_P1;PMS_P2;Temp;Humidity;BMP_temperature;BMP_pressure;BME280_temperature;BME280_humidity;BME280_pressure;Samples;Min_cycle;Max_cycle;Signal;HPM_P1;HPM_P2
2022/11/29 00:01:20;;;;;;;14.02;8.63;;;5.90;99.90;;;;;;5077771;28;20291;-85
2022/11/29 00:03:49;;;;;;;12.23;9.00;;;6.00;99.90;;;;;;5086945;28;20565;-85
2022/11/29 00:06:18;;;;;;;10.52;8.18;;;5.90;99.90;;;;;;5079635;28;20221;-85
2022/11/29 00:08:46;;;;;;;13.52;8.77;;;5.90;99.90;;;;;;5079134;28;20719;-85
2022/11/29 00:12:10;;;;;;;13.30;8.07;;;5.90;99.90;;;;;;5087235;28;20274;-86
2022/11/29 00:14:03;;;;;;;10.55;7.70;;;5.90;99.90;;;;;;5076716;28;20229;-87
2022/11/29 00:16:30;;;;;;;12.15;8.43;;;5.90;99.90;;;;;;5082511;28;20291;-86
2022/11/29 00:18:58;;;;;;;11.68;7.68;;;6.00;99.90;;;;;;5086009;28;20216;-85
2022/11/29 00:21:25;;;;;;;12.55;7.97;;;5.90;99.90;;;;;;5087212;28;20296;-86
2022/11/29 00:23:52;;;;;;;12.93;8.18;;;6.00;99.90;;;;;;5086970;28;20652;-87
2022/11/29 00:26:19;;;;;;;9.70;7.82;;;6.00;99.90;;;;;;5083387;28;20622;-87
2022/11/29 00:28:46;;;;;;;12.23;7.75;;;6.00;99.90;;;;;;5077762;28;20293;-85
2022/11/29 00:31:15;;;;;;;11.38;7.57;;;6.00;99.90;;;;;;5088232;28;20638;-86
2022/11/29 00:33:42;;;;;;;10.50;8.00;;;6.00;99.90;;;;;;5073363;28;20229;-86
2022/11/29 00:36:11;;;;;;;10.18;7.68;;;6.00;99.90;;;;;;5077073;28;20201;-88
2022/11/29 00:38:38;;;;;;;10.43;7.45;;;6.00;99.90;;;;;;5081408;28;20728;-86
2022/11/29 00:41:05;;;;;;;12.48;7.68;;;6.00;99.90;;;;;;5078343;28;20288;-86
2022/11/29 00:43:32;;;;;;;11.25;8.35;;;6.00;99.90;;;;;;5061483;28;20613;-86
2022/11/29 00:45:59;;;;;;;12.80;7.80;;;6.00;99.90;;;;;;5079362;28;20206;-88
2022/11/29 00:48:26;;;;;;;11.15;8.43;;;6.00;99.90;;;;;;5073988;28;20617;-86
2022/11/29 00:50:53;;;;;;;12.27;7.65;;;6.00;99.90;;;;;;5077235;28;20201;-86
2022/11/29 00:53:22;;;;;;;10.82;8.25;;;6.00;99.90;;;;;;5086775;28;20228;-86
2022/11/29 00:55:49;;;;;;;10.77;7.90;;;6.00;99.90;;;;;;5078190;28;20295;-86
2022/11/29 00:58:16;;;;;;;12.07;7.93;;;6.00;99.90;;;;;;5083327;28;20211;-85
2022/11/29 01:00:43;;;;;;;11.88;8.02;;;6.00;99.90;;;;;;5078571;28;20276;-86
2022/11/29 01:03:10;;;;;;;9.38;7.45;;;6.00;99.90;;;;;;5080739;28;20297;-86
2022/11/29 01:05:37;;;;;;;11.60;7.45;;;6.00;99.90;;;;;;5088150;28;20291;-86
2022/11/29 01:08:05;;;;;;;8.68;7.32;;;6.10;99.90;;;;;;5073773;28;20233;-87
2022/11/29 01:10:33;;;;;;;10.60;7.95;;;6.10;99.90;;;;;;5090522;28;20204;-86
2022/11/29 01:13:00;;;;;;;11.20;7.78;;;6.10;99.90;;;;;;5082561;28;20225;-86
2022/11/29 01:15:27;;;;;;;10.40;7.13;;;6.00;99.90;;;;;;5084474;28;20197;-86
2022/11/29 01:17:54;;;;;;;9.30;7.28;;;6.00;99.90;;;;;;5089062;28;20295;-85
2022/11/29 01:20:21;;;;;;;11.18;7.82;;;6.00;99.90;;;;;;5088266;28;20300;-86
2022/11/29 01:22:48;;;;;;;8.77;6.93;;;6.10;99.90;;;;;;5077260;28;20287;-86
2022/11/29 01:25:15;;;;;;;11.05;7.45;;;6.10;99.90;;;;;;5082755;28;20228;-86
2022/11/29 01:27:43;;;;;;;10.75;7.63;;;6.20;99.90;;;;;;5084271;28;20243;-85
2022/11/29 01:30:11;;;;;;;8.95;6.88;;;6.20;99.90;;;;;;5082432;28;20303;-86
2022/11/29 01:32:38;;;;;;;8.32;6.63;;;6.10;99.90;;;;;;5079694;28;20219;-85
2022/11/29 01:35:07;;;;;;;7.88;6.85;;;6.20;99.90;;;;;;5078867;28;20639;-86
2022/11/29 01:37:34;;;;;;;7.75;6.45;;;6.20;99.90;;;;;;5077769;28;20200;-86
2022/11/29 01:40:00;;;;;;;8.98;6.25;;;6.30;99.90;;;;;;5079137;28;20653;-87
2022/11/29 01:42:37;;;;;;;8.27;5.63;;;6.40;99.90;;;;;;5077185;28;20284;-86
2022/11/29 01:45:15;;;;;;;7.70;5.90;;;6.40;99.90;;;;;;5086136;28;20567;-86
2022/11/29 01:47:45;;;;;;;6.07;4.90;;;6.30;99.90;;;;;;5080332;28;20204;-86
2022/11/29 01:50:12;;;;;;;8.50;5.43;;;6.30;99.90;;;;;;5086154;28;20671;-86
2022/11/29 01:52:39;;;;;;;6.85;5.65;;;6.30;99.90;;;;;;5085749;28;20278;-86
2022/11/29 01:55:08;;;;;;;5.93;5.20;;;6.40;99.90;;;;;;5086588;28;20227;-86
2022/11/29 01:57:39;;;;;;;6.70;5.30;;;6.30;99.90;;;;;;5079760;28;20216;-86
2022/11/29 02:00:10;;;;;;;6.15;5.32;;;6.30;99.90;;;;;;5086992;28;20211;-86
2022/11/29 02:02:42;;;;;;;6.50;5.68;;;6.30;99.90;;;;;;5075199;28;20205;-86
2022/11/29 02:05:10;;;;;;;6.32;5.28;;;6.20;99.90;;;;;;5086468;28;20201;-86
2022/11/29 02:07:37;;;;;;;7.03;5.57;;;6.20;99.90;;;;;;5086350;28;20206;-86
2022/11/29 02:10:06;;;;;;;6.43;5.30;;;6.20;99.90;;;;;;5075853;28;20209;-86
2022/11/29 02:12:43;;;;;;;6.10;4.65;;;6.20;99.90;;;;;;5071134;28;20229;-86
2022/11/29 02:15:24;;;;;;;7.10;5.47;;;6.20;99.90;;;;;;5071661;28;20204;-86
2022/11/29 02:18:02;;;;;;;8.90;4.93;;;6.20;99.90;;;;;;5081857;28;20246;-87
2022/11/29 02:21:03;;;;;;;6.35;5.00;;;6.20;99.90;;;;;;5082074;28;20215;-86
2022/11/29 02:24:09;;;;;;;7.72;5.30;;;6.20;99.90;;;;;;5077390;28;20572;-87
2022/11/29 02:27:11;;;;;;;8.52;4.85;;;6.20;99.90;;;;;;5082732;28;20649;-86
2022/11/29 02:30:14;;;;;;;7.68;5.47;;;6.20;99.90;;;;;;5075084;28;20284;-86
2022/11/29 02:33:07;;;;;;;6.28;5.57;;;6.20;99.90;;;;;;5066426;28;20223;-86
2022/11/29 02:36:01;;;;;;;6.65;5.47;;;6.10;99.90;;;;;;5080535;28;20204;-86
2022/11/29 02:39:04;;;;;;;6.50;5.60;;;6.10;99.90;;;;;;4999849;28;20731;-86
2022/11/29 02:41:45;;;;;;;6.78;5.53;;;6.10;99.90;;;;;;5005613;28;20199;-86
2022/11/29 02:44:42;;;;;;;8.18;5.63;;;6.10;99.90;;;;;;5003983;28;20235;-86
2022/11/29 02:47:24;;;;;;;6.28;5.20;;;6.10;99.90;;;;;;4983912;28;20203;-89
2022/11/29 02:50:15;;;;;;;6.38;5.47;;;6.10;99.90;;;;;;4977836;28;20843;-86
2022/11/29 02:52:51;;;;;;;7.22;5.60;;;6.10;99.90;;;;;;4975489;28;20248;-86
2022/11/29 02:55:28;;;;;;;5.97;5.43;;;6.20;99.90;;;;;;4986378;28;20291;-86
2022/11/29 02:58:01;;;;;;;7.53;5.50;;;6.20;99.90;;;;;;4976297;28;20204;-86
2022/11/29 03:00:28;;;;;;;8.35;5.75;;;6.20;99.90;;;;;;4984780;28;20326;-86
2022/11/29 03:03:03;;;;;;;6.80;5.78;;;6.10;99.90;;;;;;4986377;28;20234;-86
2022/11/29 03:05:40;;;;;;;6.18;5.10;;;6.10;99.90;;;;;;4985724;28;20203;-86
2022/11/29 03:08:16;;;;;;;6.00;5.40;;;6.10;99.90;;;;;;4980139;28;20290;-87
2022/11/29 03:10:52;;;;;;;6.90;5.72;;;6.10;99.90;;;;;;4983576;28;20210;-86
2022/11/29 03:13:28;;;;;;;7.25;5.82;;;6.20;99.90;;;;;;4977086;28;20229;-86
2022/11/29 03:16:01;;;;;;;6.45;5.63;;;6.10;99.90;;;;;;5014781;28;20301;-86
2022/11/29 03:18:38;;;;;;;6.57;5.30;;;6.10;99.90;;;;;;5033525;28;20683;-86
2022/11/29 03:21:18;;;;;;;6.55;5.53;;;6.10;99.90;;;;;;5035664;28;20229;-86
2022/11/29 03:23:48;;;;;;;6.32;5.20;;;6.10;99.90;;;;;;5043315;28;20197;-86
2022/11/29 03:26:18;;;;;;;6.00;5.35;;;6.10;99.90;;;;;;5076653;28;20585;-86
2022/11/29 03:28:51;;;;;;;5.78;5.13;;;6.20;99.90;;;;;;5083848;28;20196;-87
2022/11/29 03:31:24;;;;;;;6.53;5.55;;;6.20;99.90;;;;;;5071648;28;20299;-89
2022/11/29 03:33:59;;;;;;;6.40;5.57;;;6.20;99.90;;;;;;5075133;28;20216;-86
2022/11/29 03:36:38;;;;;;;6.63;5.53;;;6.20;99.90;;;;;;5076441;28;20326;-86
2022/11/29 03:39:11;;;;;;;6.40;5.20;;;6.20;99.90;;;;;;5083502;28;20206;-87
2022/11/29 03:41:43;;;;;;;5.95;4.95;;;6.10;99.90;;;;;;5074156;28;20205;-86
2022/11/29 03:44:16;;;;;;;6.60;5.45;;;6.20;99.90;;;;;;5071765;28;20299;-87
2022/11/29 03:46:47;;;;;;;6.93;5.07;;;6.10;99.90;;;;;;5083347;28;20450;-86
2022/11/29 03:49:21;;;;;;;6.78;4.80;;;6.10;99.90;;;;;;5075298;28;20581;-87
2022/11/29 03:51:59;;;;;;;6.00;5.40;;;6.10;99.90;;;;;;5079331;28;20208;-87
2022/11/29 03:54:29;;;;;;;5.38;4.68;;;6.10;99.90;;;;;;5082263;28;20231;-86
2022/11/29 03:56:57;;;;;;;5.30;4.63;;;6.00;99.90;;;;;;5072488;28;20207;-86
2022/11/29 03:59:47;;;;;;;5.70;5.13;;;6.10;99.90;;;;;;5075692;28;20312;-87
2022/11/29 04:02:51;;;;;;;6.00;4.80;;;6.20;99.90;;;;;;4985674;28;20208;-86
2022/11/29 04:05:54;;;;;;;5.20;4.70;;;6.20;99.90;;;;;;4980907;28;20230;-86
2022/11/29 04:08:59;;;;;;;5.05;4.55;;;6.20;99.90;;;;;;4926929;29;20209;-86
2022/11/29 04:11:53;;;;;;;5.45;4.50;;;6.20;99.90;;;;;;4923484;29;20314;-85
2022/11/29 04:14:43;;;;;;;5.47;4.25;;;6.20;99.90;;;;;;4921425;29;20233;-86
2022/11/29 04:17:50;;;;;;;6.57;5.03;;;6.20;99.90;;;;;;4926345;29;20305;-86
2022/11/29 04:20:51;;;;;;;5.20;4.70;;;6.10;99.90;;;;;;4925681;29;20205;-86
2022/11/29 04:23:38;;;;;;;5.95;4.60;;;6.10;99.90;;;;;;4928884;29;20222;-86
2022/11/29 04:26:55;;;;;;;5.30;4.15;;;6.20;99.90;;;;;;4925330;29;20261;-88
2022/11/29 04:29:53;;;;;;;5.78;4.32;;;6.20;99.90;;;;;;4854873;29;20212;-86
2022/11/29 04:33:01;;;;;;;5.32;4.10;;;6.20;99.90;;;;;;4851409;29;20215;-86
2022/11/29 04:35:43;;;;;;;5.80;4.60;;;6.10;99.90;;;;;;4815048;29;20213;-87
2022/11/29 04:38:26;;;;;;;6.35;4.75;;;6.20;99.90;;;;;;4819342;29;20725;-87
2022/11/29 04:41:17;;;;;;;6.32;4.93;;;6.10;99.90;;;;;;4875155;29;20219;-86
2022/11/29 04:44:06;;;;;;;5.25;4.63;;;6.10;99.90;;;;;;4891980;29;20646;-87
2022/11/29 04:46:59;;;;;;;5.68;5.00;;;6.20;99.90;;;;;;4893081;29;20322;-86
2022/11/29 04:49:51;;;;;;;5.45;4.65;;;6.10;99.90;;;;;;4839367;29;20221;-87
2022/11/29 04:52:34;;;;;;;6.10;4.47;;;6.00;99.90;;;;;;4836815;29;20648;-86
2022/11/29 04:55:11;;;;;;;5.43;4.63;;;6.00;99.90;;;;;;4838441;29;20319;-87
2022/11/29 04:57:46;;;;;;;5.57;5.00;;;6.00;99.90;;;;;;4837276;29;20209;-86
2022/11/29 05:00:19;;;;;;;5.60;4.57;;;6.00;99.90;;;;;;4858335;29;20367;-88
2022/11/29 05:02:55;;;;;;;8.47;5.10;;;6.10;99.90;;;;;;4878868;29;20210;-86
2022/11/29 05:05:31;;;;;;;5.40;4.68;;;6.00;99.90;;;;;;4875221;29;20226;-86
2022/11/29 05:08:10;;;;;;;6.43;4.73;;;6.10;99.90;;;;;;4913356;29;20216;-87
2022/11/29 05:10:44;;;;;;;5.43;4.28;;;6.10;99.90;;;;;;4968508;28;20287;-86
2022/11/29 05:13:18;;;;;;;6.68;5.07;;;6.10;99.90;;;;;;4969637;28;20203;-87
2022/11/29 05:16:17;;;;;;;5.20;4.60;;;6.10;99.90;;;;;;4963262;28;20209;-87
2022/11/29 05:19:16;;;;;;;9.07;4.75;;;6.00;99.90;;;;;;4951077;28;20291;-86
2022/11/29 05:21:56;;;;;;;5.78;4.78;;;6.00;99.90;;;;;;4998323;28;20222;-86
2022/11/29 05:24:35;;;;;;;8.00;5.07;;;6.00;99.90;;;;;;4999147;28;20214;-86
2022/11/29 05:27:13;;;;;;;5.73;4.80;;;6.00;99.90;;;;;;5057231;28;20245;-86
2022/11/29 05:29:46;;;;;;;7.47;4.90;;;6.10;99.90;;;;;;5073001;28;20204;-86
2022/11/29 05:32:32;;;;;;;5.70;4.25;;;6.10;99.90;;;;;;5083376;28;20211;-85
2022/11/29 05:35:32;;;;;;;5.07;4.57;;;6.10;99.90;;;;;;5080710;28;20587;-86
2022/11/29 05:38:08;;;;;;;4.68;4.15;;;6.10;99.90;;;;;;5082553;28;20196;-86
2022/11/29 05:40:59;;;;;;;4.50;4.10;;;6.10;99.90;;;;;;5081591;28;20220;-88
2022/11/29 05:43:48;;;;;;;5.30;4.33;;;6.10;99.90;;;;;;5090091;28;20205;-87
2022/11/29 05:46:21;;;;;;;5.00;4.50;;;6.00;99.90;;;;;;5086008;28;20288;-87
2022/11/29 05:48:58;;;;;;;5.30;4.20;;;6.00;99.90;;;;;;5086430;28;20196;-87
2022/11/29 05:51:39;;;;;;;5.45;4.20;;;6.00;99.90;;;;;;5076648;28;20234;-88
2022/11/29 05:54:18;;;;;;;5.83;4.30;;;6.00;99.90;;;;;;5076015;28;20700;-87
2022/11/29 05:56:57;;;;;;;8.15;4.38;;;6.00;99.90;;;;;;5088965;28;20200;-88
2022/11/29 05:59:35;;;;;;;8.30;4.30;;;6.10;99.90;;;;;;5089617;28;20642;-87
2022/11/29 06:02:19;;;;;;;5.70;4.20;;;6.00;99.90;;;;;;5078930;28;20661;-86
2022/11/29 06:05:02;;;;;;;4.55;4.15;;;6.10;99.90;;;;;;5080800;28;20204;-87
2022/11/29 06:07:40;;;;;;;5.23;4.00;;;6.10;99.90;;;;;;5088354;28;20664;-86
2022/11/29 06:10:12;;;;;;;9.73;4.77;;;6.10;99.90;;;;;;5081009;28;20663;-87
2022/11/29 06:12:54;;;;;;;7.05;4.35;;;6.10;99.90;;;;;;5083490;28;20292;-86
2022/11/29 06:15:45;;;;;;;4.68;4.18;;;6.10;99.90;;;;;;5075287;28;20231;-86
2022/11/29 06:18:33;;;;;;;5.40;4.20;;;6.00;99.90;;;;;;4999656;28;20218;-86
2022/11/29 06:21:21;;;;;;;6.85;4.55;;;6.10;99.90;;;;;;4999410;28;20295;-87
2022/11/29 06:24:16;;;;;;;5.40;4.53;;;6.00;99.90;;;;;;5000289;28;20215;-88
2022/11/29 06:27:09;;;;;;;6.75;4.38;;;6.10;99.90;;;;;;5003965;28;20567;-87
2022/11/29 06:29:44;;;;;;;4.85;3.90;;;6.10;99.90;;;;;;5004212;28;20199;-88
2022/11/29 06:32:24;;;;;;;5.32;4.40;;;6.10;99.90;;;;;;4993283;28;20287;-85
2022/11/29 06:34:59;;;;;;;6.15;4.07;;;6.10;99.90;;;;;;4994733;28;20738;-87
2022/11/29 06:37:36;;;;;;;6.47;4.60;;;6.10;99.90;;;;;;4997266;28;20195;-87
2022/11/29 06:40:12;;;;;;;4.90;4.18;;;6.10;99.90;;;;;;4976106;28;20208;-87
2022/11/29 06:42:50;;;;;;;5.10;4.00;;;6.10;99.90;;;;;;5004228;28;20196;-87
2022/11/29 06:45:17;;;;;;;6.20;4.10;;;6.10;99.90;;;;;;5004414;28;20239;-87
2022/11/29 06:47:47;;;;;;;5.13;3.55;;;6.10;99.90;;;;;;5005164;28;20200;-87
2022/11/29 06:50:39;;;;;;;7.22;4.55;;;6.10;99.90;;;;;;4995048;28;20673;-87
2022/11/29 06:53:13;;;;;;;4.53;3.35;;;6.00;99.90;;;;;;4986783;28;20262;-87
2022/11/29 06:55:56;;;;;;;4.00;3.40;;;6.00;99.90;;;;;;5051427;28;20225;-87
2022/11/29 06:58:35;;;;;;;6.65;3.63;;;6.10;99.90;;;;;;5083491;28;20200;-87
2022/11/29 07:01:13;;;;;;;3.77;3.30;;;6.10;99.90;;;;;;5081791;28;20226;-86
2022/11/29 07:03:54;;;;;;;4.80;3.63;;;6.10;99.90;;;;;;5080357;28;20206;-86
2022/11/29 07:06:23;;;;;;;3.92;3.40;;;6.10;99.90;;;;;;5089703;28;20207;-86
2022/11/29 07:08:55;;;;;;;3.90;3.42;;;6.10;99.90;;;;;;5082125;28;20307;-86
2022/11/29 07:11:24;;;;;;;7.30;3.80;;;6.20;99.90;;;;;;5083744;28;20304;-86
2022/11/29 07:13:52;;;;;;;4.40;3.27;;;6.10;99.90;;;;;;5082896;28;20730;-87
2022/11/29 07:16:26;;;;;;;5.00;3.67;;;6.20;99.90;;;;;;5077419;28;20283;-87
2022/11/29 07:19:03;;;;;;;4.32;3.38;;;6.10;99.90;;;;;;5076535;28;20721;-87
2022/11/29 07:21:47;;;;;;;5.45;3.70;;;6.10;99.90;;;;;;5070944;28;20287;-86
2022/11/29 07:24:28;;;;;;;4.95;3.83;;;6.10;99.90;;;;;;5085234;28;20203;-86
2022/11/29 07:27:07;;;;;;;5.93;4.13;;;6.00;99.90;;;;;;5086318;28;20284;-86
2022/11/29 07:29:43;;;;;;;5.93;4.13;;;6.00;99.90;;;;;;5089098;28;20640;-88
2022/11/29 07:32:16;;;;;;;5.32;3.53;;;6.00;99.90;;;;;;5083431;28;20204;-86
2022/11/29 07:34:59;;;;;;;7.18;4.10;;;6.00;99.90;;;;;;5084214;28;20763;-86
2022/11/29 07:37:35;;;;;;;6.05;3.97;;;6.10;99.90;;;;;;5080449;28;20208;-86
2022/11/29 07:40:09;;;;;;;6.50;3.92;;;6.10;99.90;;;;;;5071698;28;20209;-86
2022/11/29 07:42:48;;;;;;;7.25;4.47;;;6.20;99.90;;;;;;5088671;28;20195;-86
2022/11/29 07:45:23;;;;;;;8.73;4.32;;;6.20;99.90;;;;;;5080791;28;20614;-86
2022/11/29 07:47:50;;;;;;;5.30;4.13;;;6.20;99.90;;;;;;5087935;28;20286;-86
2022/11/29 07:50:20;;;;;;;4.63;3.60;;;6.20;99.90;;;;;;5088585;28;20197;-86
2022/11/29 07:52:47;;;;;;;4.82;4.15;;;6.20;99.90;;;;;;5089279;28;20664;-86
2022/11/29 07:55:16;;;;;;;7.35;4.50;;;6.20;99.90;;;;;;5091717;28;20648;-86
2022/11/29 07:57:46;;;;;;;5.93;3.80;;;6.20;99.90;;;;;;5081536;28;20687;-86
2022/11/29 08:00:14;;;;;;;7.88;4.30;;;6.30;99.90;;;;;;5083909;28;20549;-86
2022/11/29 08:02:41;;;;;;;5.90;4.15;;;6.30;99.90;;;;;;5082258;28;20288;-86
2022/11/29 08:05:09;;;;;;;6.85;4.15;;;6.30;99.90;;;;;;5087897;28;20341;-86
2022/11/29 08:07:37;;;;;;;6.55;4.55;;;6.30;99.90;;;;;;5090448;28;20259;-86
2022/11/29 08:10:06;;;;;;;6.00;4.32;;;6.30;99.90;;;;;;5090717;28;20303;-86
2022/11/29 08:12:33;;;;;;;6.60;5.45;;;6.40;99.90;;;;;;5087189;28;20248;-86
2022/11/29 08:15:02;;;;;;;4.55;4.10;;;6.40;99.90;;;;;;5084894;28;20232;-86
2022/11/29 08:17:29;;;;;;;5.38;4.28;;;6.40;99.90;;;;;;5078216;28;20231;-86
2022/11/29 08:19:56;;;;;;;6.63;4.32;;;6.60;99.90;;;;;;5086109;28;20295;-86
2022/11/29 08:22:23;;;;;;;7.22;4.47;;;6.50;99.90;;;;;;5081813;28;20262;-85
2022/11/29 08:24:51;;;;;;;4.90;4.30;;;6.60;99.90;;;;;;5085117;28;20224;-85
2022/11/29 08:27:18;;;;;;;5.43;4.43;;;6.70;99.90;;;;;;5088199;28;20215;-86
2022/11/29 08:29:45;;;;;;;5.70;4.90;;;6.60;99.90;;;;;;5092256;28;20231;-86
2022/11/29 08:32:13;;;;;;;5.30;4.40;;;6.60;99.90;;;;;;5088535;28;20282;-86
2022/11/29 08:34:40;;;;;;;6.85;4.80;;;6.70;99.90;;;;;;5087901;28;20688;-87
2022/11/29 08:37:07;;;;;;;6.53;4.55;;;6.70;99.90;;;;;;5080178;28;20203;-86
2022/11/29 08:39:34;;;;;;;5.90;4.43;;;6.60;99.90;;;;;;5081607;28;20214;-87
2022/11/29 08:42:01;;;;;;;4.82;3.97;;;6.60;99.90;;;;;;5091953;28;20291;-87
2022/11/29 08:44:28;;;;;;;4.53;3.85;;;6.70;99.90;;;;;;5091367;28;20287;-86
2022/11/29 08:50:00;;;;;;;4.80;3.92;;;6.60;99.90;;;;;;5089768;28;20254;-86
2022/11/29 08:55:11;;;;;;;4.80;3.75;;;6.60;99.90;;;;;;5068806;28;20228;-86
2022/11/29 08:57:38;;;;;;;4.57;3.97;;;6.70;99.90;;;;;;5087461;28;20840;-86
2022/11/29 09:00:09;;;;;;;5.65;4.07;;;6.70;99.90;;;;;;5078055;28;20201;-86
2022/11/29 09:02:38;;;;;;;5.95;4.30;;;6.70;99.90;;;;;;5085575;28;20288;-86
2022/11/29 09:05:08;;;;;;;7.22;4.20;;;6.70;99.90;;;;;;5084659;28;20244;-86
2022/11/29 09:07:35;;;;;;;4.40;3.97;;;6.70;99.90;;;;;;5072622;28;20209;-86
2022/11/29 09:10:04;;;;;;;5.35;3.72;;;6.70;99.90;;;;;;5082073;28;20204;-86
2022/11/29 09:12:32;;;;;;;5.85;4.30;;;6.80;99.90;;;;;;5091210;28;20258;-85
2022/11/29 09:14:59;;;;;;;6.03;3.90;;;6.90;99.90;;;;;;5090034;28;20220;-86
2022/11/29 09:17:32;;;;;;;8.60;4.43;;;7.00;99.90;;;;;;5076788;28;20320;-86
2022/11/29 09:19:59;;;;;;;5.47;4.25;;;7.00;99.90;;;;;;5077482;28;20211;-86
2022/11/29 09:22:27;;;;;;;5.50;4.25;;;6.90;99.90;;;;;;5083057;28;20210;-86
2022/11/29 09:24:54;;;;;;;5.15;4.53;;;6.90;99.90;;;;;;5080064;28;20724;-86
2022/11/29 09:27:21;;;;;;;6.18;4.35;;;6.80;99.90;;;;;;5085183;28;20213;-86
2022/11/29 09:29:48;;;;;;;7.57;4.50;;;6.90;99.90;;;;;;5090487;28;20210;-87
2022/11/29 09:32:20;;;;;;;6.10;4.20;;;6.80;99.90;;;;;;5088988;28;20653;-85
2022/11/29 09:34:46;;;;;;;5.97;3.72;;;7.00;99.90;;;;;;5080617;28;20224;-86
2022/11/29 09:37:13;;;;;;;5.22;3.47;;;7.00;99.90;;;;;;5078879;28;20580;-86
2022/11/29 09:39:42;;;;;;;5.20;3.63;;;6.80;99.80;;;;;;5088105;28;20230;-86
2022/11/29 09:42:38;;;;;;;4.05;3.63;;;6.90;99.60;;;;;;5087468;28;20288;-86
2022/11/29 09:45:08;;;;;;;4.35;3.42;;;7.00;99.80;;;;;;5083111;28;20212;-86
2022/11/29 09:48:16;;;;;;;4.13;3.38;;;6.90;99.50;;;;;;5085492;28;20250;-86
2022/11/29 09:50:52;;;;;;;4.18;3.53;;;6.80;99.70;;;;;;5005899;28;20231;-86
2022/11/29 09:53:27;;;;;;;3.65;3.28;;;6.90;99.90;;;;;;5005344;28;20280;-85
2022/11/29 09:56:10;;;;;;;4.80;3.88;;;7.10;99.70;;;;;;4993109;28;20754;-86
2022/11/29 09:58:43;;;;;;;3.78;3.10;;;6.90;99.70;;;;;;5001775;28;20212;-86
2022/11/29 10:01:18;;;;;;;3.97;3.50;;;6.60;99.70;;;;;;5003242;28;20618;-86
2022/11/29 10:03:50;;;;;;;4.53;3.67;;;6.50;99.90;;;;;;5007036;28;20217;-85
2022/11/29 10:06:24;;;;;;;7.10;3.50;;;6.60;99.90;;;;;;5007830;28;20269;-86
2022/11/29 10:08:55;;;;;;;4.78;4.18;;;6.60;99.90;;;;;;5006873;28;20199;-85
2022/11/29 10:11:28;;;;;;;4.40;3.70;;;6.60;99.90;;;;;;5008762;28;20229;-86
2022/11/29 10:14:01;;;;;;;4.45;3.78;;;6.70;99.90;;;;;;5006683;28;20204;-86
2022/11/29 10:16:41;;;;;;;4.60;3.60;;;6.50;99.90;;;;;;5002981;28;20364;-86
2022/11/29 10:19:18;;;;;;;4.60;3.45;;;6.70;99.90;;;;;;5000698;28;20204;-86
2022/11/29 10:21:54;;;;;;;4.18;3.58;;;6.80;99.90;;;;;;5007955;28;20290;-86
2022/11/29 10:24:22;;;;;;;7.63;3.80;;;6.70;99.60;;;;;;5007327;28;20209;-86
2022/11/29 10:26:51;;;;;;;4.78;3.20;;;6.90;99.90;;;;;;5015465;28;20203;-86
2022/11/29 10:29:18;;;;;;;3.50;3.03;;;7.00;99.30;;;;;;5086388;28;20196;-88
2022/11/29 10:31:48;;;;;;;4.45;2.95;;;7.00;99.30;;;;;;5087347;28;20584;-86
2022/11/29 10:34:17;;;;;;;3.88;2.70;;;7.00;98.90;;;;;;5086211;28;20220;-86
2022/11/29 10:36:47;;;;;;;4.03;2.90;;;6.70;99.40;;;;;;5084934;28;20213;-86
2022/11/29 10:39:20;;;;;;;3.42;3.00;;;6.70;99.50;;;;;;5081109;28;20202;-85
2022/11/29 10:41:54;;;;;;;3.03;2.78;;;6.70;99.90;;;;;;5082834;28;20247;-86
2022/11/29 10:44:21;;;;;;;3.90;3.15;;;6.80;99.80;;;;;;5080756;28;20288;-87
2022/11/29 10:46:50;;;;;;;4.32;2.92;;;6.90;99.90;;;;;;5083620;28;20669;-86
2022/11/29 10:49:23;;;;;;;5.55;3.05;;;6.80;99.80;;;;;;5071590;28;20215;-86
2022/11/29 10:51:50;;;;;;;6.45;3.63;;;6.80;99.90;;;;;;5071778;28;20288;-87
2022/11/29 10:54:31;;;;;;;3.58;3.10;;;6.80;99.90;;;;;;5077643;28;20228;-86
2022/11/29 10:57:01;;;;;;;3.20;2.88;;;6.90;99.90;;;;;;5083369;28;20278;-86
2022/11/29 10:59:32;;;;;;;2.35;2.15;;;7.10;99.90;;;;;;5082334;28;20204;-86
2022/11/29 11:02:00;;;;;;;2.50;2.30;;;6.90;99.60;;;;;;5089919;28;20236;-86
2022/11/29 11:04:29;;;;;;;3.53;2.70;;;6.90;99.30;;;;;;5081960;28;20291;-86
2022/11/29 11:07:00;;;;;;;2.97;2.67;;;7.00;99.70;;;;;;5081087;28;20251;-86
2022/11/29 11:09:33;;;;;;;2.60;2.40;;;7.00;99.30;;;;;;5076956;28;20201;-86
2022/11/29 11:12:04;;;;;;;2.40;2.20;;;7.20;99.00;;;;;;5089765;28;20573;-86
2022/11/29 11:14:33;;;;;;;2.78;2.47;;;7.10;98.90;;;;;;5088579;28;20200;-86
2022/11/29 11:17:16;;;;;;;2.75;2.28;;;7.10;98.90;;;;;;5081314;28;20655;-86
2022/11/29 11:19:53;;;;;;;4.65;2.58;;;7.10;99.30;;;;;;5081951;28;20656;-86
2022/11/29 11:22:33;;;;;;;3.58;2.00;;;7.10;99.60;;;;;;5077835;28;20287;-85
2022/11/29 11:25:04;;;;;;;2.50;2.20;;;7.30;99.50;;;;;;5081140;28;20246;-86
2022/11/29 11:27:35;;;;;;;2.20;2.00;;;7.40;98.50;;;;;;5087210;28;20287;-86
2022/11/29 11:30:04;;;;;;;2.72;2.38;;;7.30;98.70;;;;;;5087130;28;20265;-86
2022/11/29 11:32:31;;;;;;;3.05;2.75;;;7.40;98.40;;;;;;5083176;28;20284;-86
2022/11/29 11:34:59;;;;;;;3.00;2.53;;;7.30;98.20;;;;;;5082052;28;20582;-86
2022/11/29 11:37:28;;;;;;;4.50;3.00;;;7.40;98.80;;;;;;5087669;28;20652;-86
2022/11/29 11:39:57;;;;;;;3.15;2.70;;;7.50;98.20;;;;;;5086816;28;20200;-86
2022/11/29 11:42:37;;;;;;;4.40;2.95;;;7.40;98.20;;;;;;5076020;28;20330;-86
2022/11/29 11:45:21;;;;;;;2.80;2.60;;;7.50;98.60;;;;;;5081839;28;21007;-86
2022/11/29 11:47:50;;;;;;;2.60;2.40;;;7.50;98.60;;;;;;5003986;28;20207;-85
2022/11/29 11:50:27;;;;;;;2.38;2.10;;;7.60;98.20;;;;;;4997010;28;20247;-86
2022/11/29 11:52:57;;;;;;;2.40;2.20;;;7.60;97.70;;;;;;5002427;28;20887;-87
2022/11/29 11:55:32;;;;;;;2.40;2.20;;;7.60;97.90;;;;;;5001174;28;20269;-86
2022/11/29 11:58:02;;;;;;;2.25;2.05;;;7.50;98.20;;;;;;5002223;28;20290;-86
2022/11/29 12:00:47;;;;;;;2.45;2.25;;;7.40;98.50;;;;;;4989826;28;20250;-86
2022/11/29 12:03:28;;;;;;;2.20;2.00;;;7.40;99.20;;;;;;4994681;28;20598;-87
2022/11/29 12:05:59;;;;;;;1.70;1.60;;;7.40;99.20;;;;;;5000541;28;20211;-86
2022/11/29 12:08:28;;;;;;;2.47;1.70;;;7.50;97.90;;;;;;5000151;28;20222;-84
2022/11/29 12:11:00;;;;;;;1.80;1.70;;;7.60;97.10;;;;;;5000550;28;20226;-86
2022/11/29 12:13:32;;;;;;;1.70;1.50;;;7.60;97.50;;;;;;5000828;28;20203;-85
2022/11/29 12:16:10;;;;;;;5.53;1.80;;;7.60;97.20;;;;;;4998163;28;20230;-85
2022/11/29 12:18:43;;;;;;;1.85;1.65;;;7.60;97.00;;;;;;4997863;28;20202;-84
2022/11/29 12:21:15;;;;;;;2.38;1.70;;;7.70;96.80;;;;;;5004905;28;20669;-85
2022/11/29 12:23:47;;;;;;;3.13;1.67;;;7.70;96.80;;;;;;5000101;28;20207;-84
2022/11/29 12:26:19;;;;;;;1.90;1.60;;;7.70;97.60;;;;;;5069902;28;20824;-85
2022/11/29 12:28:50;;;;;;;2.05;1.85;;;7.70;97.70;;;;;;5075781;28;20305;-84
2022/11/29 12:31:38;;;;;;;2.10;1.50;;;7.70;98.00;;;;;;5083431;28;20686;-86
2022/11/29 12:34:19;;;;;;;1.70;1.42;;;7.70;97.70;;;;;;5083111;28;20296;-84
2022/11/29 12:36:54;;;;;;;1.45;1.30;;;7.70;97.70;;;;;;5077013;28;20307;-84
2022/11/29 12:39:37;;;;;;;1.60;1.50;;;7.80;96.50;;;;;;5079677;28;20200;-84
2022/11/29 12:42:15;;;;;;;1.60;1.50;;;7.70;96.10;;;;;;5084537;28;20203;-84
2022/11/29 12:44:54;;;;;;;2.33;2.13;;;7.70;96.70;;;;;;5084308;28;20732;-84
2022/11/29 12:47:33;;;;;;;2.53;2.00;;;7.60;97.10;;;;;;5088207;28;20201;-84
2022/11/29 12:50:13;;;;;;;2.85;2.10;;;7.70;97.40;;;;;;5086400;28;20299;-84
2022/11/29 12:52:48;;;;;;;2.13;1.80;;;7.50;97.80;;;;;;5077454;28;20197;-85
2022/11/29 12:55:25;;;;;;;1.85;1.73;;;7.60;98.20;;;;;;5083481;28;20574;-84
2022/11/29 12:57:59;;;;;;;2.17;1.98;;;7.60;97.70;;;;;;5086653;28;20202;-84
2022/11/29 13:00:39;;;;;;;2.00;1.80;;;7.60;97.90;;;;;;5085934;28;20287;-84
2022/11/29 13:03:24;;;;;;;2.70;2.03;;;7.70;97.90;;;;;;5087696;28;20262;-85
2022/11/29 13:06:07;;;;;;;2.50;2.10;;;7.70;97.20;;;;;;5078047;28;20311;-85
2022/11/29 13:08:59;;;;;;;8.25;6.45;;;7.60;97.50;;;;;;5090234;28;20631;-84
2022/11/29 13:11:30;;;;;;;2.42;2.22;;;7.60;97.90;;;;;;5081100;28;20236;-85
2022/11/29 13:14:03;;;;;;;2.83;2.47;;;7.60;97.90;;;;;;5081419;28;20288;-85
2022/11/29 13:16:44;;;;;;;2.42;2.10;;;7.40;98.10;;;;;;5082043;28;20311;-85
2022/11/29 13:19:17;;;;;;;2.35;1.70;;;7.40;98.80;;;;;;5080882;28;20694;-84
2022/11/29 13:21:51;;;;;;;2.47;1.95;;;7.40;98.20;;;;;;5089424;28;20207;-84
2022/11/29 13:24:27;;;;;;;2.33;2.00;;;7.30;98.20;;;;;;5079149;28;20284;-84
2022/11/29 13:26:55;;;;;;;3.15;2.38;;;7.30;98.40;;;;;;5080923;28;20200;-84
2022/11/29 13:29:22;;;;;;;2.20;2.00;;;7.30;98.60;;;;;;5083878;28;20220;-84
2022/11/29 13:31:51;;;;;;;3.35;2.80;;;7.30;98.70;;;;;;5083742;28;20236;-84
2022/11/29 13:34:24;;;;;;;2.92;2.10;;;7.20;98.60;;;;;;5090215;28;20287;-84
2022/11/29 13:37:04;;;;;;;2.30;2.05;;;7.10;98.80;;;;;;5079530;28;20248;-85
2022/11/29 13:39:56;;;;;;;2.92;2.00;;;7.10;99.20;;;;;;5079002;28;20208;-84
2022/11/29 13:42:32;;;;;;;2.63;2.42;;;7.30;99.10;;;;;;5081758;28;20209;-85
2022/11/29 13:45:05;;;;;;;3.38;2.50;;;7.50;98.70;;;;;;5085015;28;20279;-85